createdAt,value
2023-04-10T00:02:01.118Z,17.91
2023-04-10T00:04:28.457Z,16.48
2023-04-10T00:06:57.265Z,18.21
2023-04-10T00:09:24.366Z,18.03
2023-04-10T00:11:51.574Z,17.46
2023-04-10T00:14:18.635Z,17.29
2023-04-10T00:16:45.725Z,17.30
2023-04-10T00:19:12.947Z,17.71
2023-04-10T00:21:40.177Z,17.37
2023-04-10T00:24:08.788Z,17.88
2023-04-10T00:26:36.553Z,17.77
2023-04-10T00:29:03.788Z,16.92
2023-04-10T00:31:31.050Z,17.92
2023-04-10T00:33:58.180Z,18.55
2023-04-10T00:36:25.227Z,17.88
2023-04-10T00:38:52.778Z,18.18
2023-04-10T00:41:21.340Z,17.81
2023-04-10T00:43:48.406Z,18.61
2023-04-10T00:46:15.612Z,18.09
2023-04-10T00:48:42.741Z,16.59
2023-04-10T00:51:09.970Z,18.66
2023-04-10T00:53:37.026Z,17.93
2023-04-10T00:56:04.303Z,18.35
2023-04-10T00:58:33.001Z,18.02
2023-04-10T01:01:00.204Z,17.53
2023-04-10T01:03:27.601Z,18.23
2023-04-10T01:06:01.407Z,18.44
2023-04-10T01:08:36.734Z,17.63
2023-04-10T01:11:06.894Z,17.56
2023-04-10T01:13:39.870Z,17.69
2023-04-10T01:16:11.818Z,18.17
2023-04-10T01:18:41.913Z,17.73
2023-04-10T01:21:11.417Z,17.73
2023-04-10T01:23:59.603Z,18.48
2023-04-10T01:26:36.828Z,18.15
2023-04-10T01:29:08.044Z,15.78
2023-04-10T01:31:36.737Z,15.92
2023-04-10T01:34:05.999Z,16.76
2023-04-10T01:36:36.236Z,17.53
2023-04-10T01:39:04.202Z,17.13
2023-04-10T01:41:31.727Z,16.83
2023-04-10T01:46:29.919Z,16.42
2023-04-10T01:48:59.902Z,15.80
2023-04-10T01:51:27.473Z,15.10
2023-04-10T01:53:55.208Z,14.97
2023-04-10T01:56:25.784Z,14.91
2023-04-10T01:58:53.241Z,14.91
2023-04-10T02:01:29.077Z,14.57
2023-04-10T02:03:59.216Z,14.26
2023-04-10T02:06:29.795Z,14.39
2023-04-10T02:08:59.369Z,14.37
2023-04-10T02:11:32.270Z,13.95
2023-04-10T02:14:01.469Z,13.96
2023-04-10T02:16:29.675Z,14.51
2023-04-10T02:18:59.131Z,14.03
2023-04-10T02:21:26.790Z,14.10
2023-04-10T02:23:54.149Z,13.84
2023-04-10T02:26:21.452Z,14.02
2023-04-10T02:28:48.605Z,13.54
2023-04-10T02:31:18.749Z,13.88
2023-04-10T02:33:45.926Z,13.65
2023-04-10T02:36:14.786Z,13.97
2023-04-10T02:38:41.895Z,14.20
2023-04-10T02:41:10.499Z,14.01
2023-04-10T02:43:37.625Z,13.90
2023-04-10T02:46:05.451Z,14.30
2023-04-10T02:48:38.164Z,14.14
2023-04-10T02:51:05.637Z,14.08
2023-04-10T02:53:34.541Z,15.16
2023-04-10T02:56:02.474Z,13.94
2023-04-10T02:58:30.262Z,14.07
2023-04-10T03:00:58.144Z,14.20
2023-04-10T03:03:43.489Z,14.04
2023-04-10T03:06:11.400Z,14.21
2023-04-10T03:08:41.971Z,13.91
2023-04-10T03:11:09.063Z,14.47
2023-04-10T03:13:36.101Z,14.32
2023-04-10T03:16:03.329Z,14.87
2023-04-10T03:18:30.638Z,14.62
2023-04-10T03:20:57.820Z,14.40
2023-04-10T03:23:25.340Z,14.16
2023-04-10T03:25:54.043Z,14.53
2023-04-10T03:28:24.396Z,14.15
2023-04-10T03:30:51.446Z,14.15
2023-04-10T03:33:18.526Z,13.68
2023-04-10T03:35:46.116Z,13.79
2023-04-10T03:38:13.222Z,13.98
2023-04-10T03:40:41.374Z,13.52
2023-04-10T03:43:11.979Z,13.66
2023-04-10T03:45:39.062Z,14.21
2023-04-10T03:48:06.430Z,14.76
2023-04-10T03:50:41.181Z,14.57
2023-04-10T03:53:08.273Z,15.30
2023-04-10T03:55:35.587Z,15.04
2023-04-10T03:58:03.356Z,14.78
2023-04-10T04:00:32.935Z,14.56
2023-04-10T04:03:20.872Z,14.56
2023-04-10T04:06:08.357Z,15.07
2023-04-10T04:08:50.271Z,15.08
2023-04-10T04:11:46.536Z,16.27
2023-04-10T04:14:33.910Z,14.43
2023-04-10T04:17:21.068Z,14.10
2023-04-10T04:20:14.073Z,13.68
2023-04-10T04:23:19.574Z,14.48
2023-04-10T04:26:05.425Z,13.88
2023-04-10T04:29:02.162Z,13.54
2023-04-10T04:31:53.086Z,14.37
2023-04-10T04:34:37.095Z,14.26
2023-04-10T04:37:14.631Z,14.58
2023-04-10T04:40:00.120Z,15.82
2023-04-10T04:42:59.639Z,16.73
2023-04-10T04:45:56.617Z,15.76
2023-04-10T04:48:47.635Z,14.89
2023-04-10T04:51:34.413Z,15.06
2023-04-10T04:54:08.351Z,14.25
2023-04-10T04:56:58.952Z,14.19
2023-04-10T04:59:52.034Z,15.61
2023-04-10T05:02:37.727Z,15.96
2023-04-10T05:05:23.416Z,15.03
2023-04-10T05:08:13.386Z,14.87
2023-04-10T05:10:47.049Z,14.97
2023-04-10T05:13:23.541Z,14.61
2023-04-10T05:16:26.395Z,14.42
2023-04-10T05:18:58.735Z,15.81
2023-04-10T05:21:44.925Z,15.61
2023-04-10T05:24:45.419Z,15.92
2023-04-10T05:27:15.522Z,16.13
2023-04-10T05:30:21.320Z,15.32
2023-04-10T05:33:12.061Z,16.01
2023-04-10T05:36:03.587Z,16.52
2023-04-10T05:38:52.606Z,16.31
2023-04-10T05:41:48.528Z,15.32
2023-04-10T05:44:39.361Z,14.99
2023-04-10T05:47:25.478Z,16.29
2023-04-10T05:50:11.943Z,15.67
2023-04-10T05:52:55.236Z,15.71
2023-04-10T05:55:44.525Z,15.92
2023-04-10T05:58:36.212Z,15.95
2023-04-10T06:01:15.081Z,16.12
2023-04-10T06:03:54.053Z,16.05
2023-04-10T06:06:22.266Z,15.47
2023-04-10T06:08:49.944Z,15.96
2023-04-10T06:11:17.591Z,15.79
2023-04-10T06:13:51.873Z,15.74
2023-04-10T06:16:22.309Z,15.30
2023-04-10T06:18:49.547Z,15.78
2023-04-10T06:21:17.043Z,15.77
2023-04-10T06:23:46.647Z,15.16
2023-04-10T06:26:14.279Z,14.74
2023-04-10T06:28:41.968Z,14.94
2023-04-10T06:31:13.173Z,15.33
2023-04-10T06:33:40.993Z,15.01
2023-04-10T06:36:10.805Z,15.36
2023-04-10T06:38:47.662Z,14.74
2023-04-10T06:41:15.301Z,14.90
2023-04-10T06:43:42.399Z,14.45
2023-04-10T06:46:09.547Z,14.58
2023-04-10T06:48:38.312Z,14.50
2023-04-10T06:51:06.842Z,14.42
2023-04-10T06:53:34.456Z,14.29
2023-04-10T06:56:03.262Z,14.09
2023-04-10T06:58:32.140Z,14.64
2023-04-10T07:00:59.335Z,14.61
2023-04-10T07:03:27.017Z,14.48
2023-04-10T07:05:56.130Z,15.02
2023-04-10T07:08:23.267Z,14.93
2023-04-10T07:10:50.462Z,16.44
2023-04-10T07:13:17.689Z,14.98
2023-04-10T07:15:44.924Z,14.65
2023-04-10T07:18:12.198Z,15.14
2023-04-10T07:20:39.387Z,15.63
2023-04-10T07:23:08.095Z,15.30
2023-04-10T07:25:36.363Z,15.97
2023-04-10T07:28:03.489Z,16.34
2023-04-10T07:30:30.659Z,15.98
2023-04-10T07:32:58.099Z,15.94
2023-04-10T07:35:26.199Z,15.83
2023-04-10T07:37:53.320Z,16.02
2023-04-10T07:40:23.002Z,16.46
2023-04-10T07:42:51.504Z,15.79
2023-04-10T07:45:20.382Z,16.03
2023-04-10T07:47:47.992Z,15.99
2023-04-10T07:50:15.633Z,15.78
2023-04-10T07:52:43.294Z,14.83
2023-04-10T07:55:11.249Z,14.97
2023-04-10T07:57:42.117Z,16.94
2023-04-10T08:00:09.912Z,16.85
2023-04-10T08:02:40.316Z,16.42
2023-04-10T08:05:08.401Z,15.29
2023-04-10T08:07:36.214Z,15.83
2023-04-10T08:10:03.493Z,15.60
2023-04-10T08:12:33.366Z,15.58
2023-04-10T08:15:02.909Z,15.66
2023-04-10T08:17:30.585Z,16.38
2023-04-10T08:19:58.221Z,16.04
2023-04-10T08:22:26.118Z,16.17
2023-04-10T08:24:53.535Z,16.11
2023-04-10T08:27:21.388Z,15.70
2023-04-10T08:29:48.459Z,16.03
2023-04-10T08:32:16.971Z,17.31
2023-04-10T08:34:45.199Z,16.66
2023-04-10T08:37:13.179Z,16.26
2023-04-10T08:39:40.777Z,15.77
2023-04-10T08:42:08.535Z,16.01
2023-04-10T08:44:35.801Z,15.46
2023-04-10T08:47:04.543Z,15.65
2023-04-10T08:49:54.155Z,15.52
2023-04-10T08:52:21.964Z,15.96
2023-04-10T08:54:51.580Z,15.57
2023-04-10T08:57:19.627Z,15.81
2023-04-10T08:59:47.712Z,15.73
2023-04-10T09:02:15.305Z,15.83
2023-04-10T09:04:47.958Z,16.57
2023-04-10T09:07:16.095Z,16.15
2023-04-10T09:09:44.108Z,16.15
2023-04-10T09:12:12.613Z,15.36
2023-04-10T09:14:41.297Z,15.17
2023-04-10T09:17:16.480Z,15.98
2023-04-10T09:19:46.149Z,15.06
2023-04-10T09:22:13.948Z,15.58
2023-04-10T09:24:42.918Z,15.81
2023-04-10T09:27:10.260Z,16.15
2023-04-10T09:29:45.362Z,16.17
2023-04-10T09:32:12.959Z,15.74
2023-04-10T09:34:54.923Z,16.29
2023-04-10T09:37:23.732Z,16.19
2023-04-10T09:39:50.831Z,16.24
2023-04-10T09:42:29.050Z,16.00
2023-04-10T09:44:57.391Z,16.22
2023-04-10T09:47:25.100Z,15.79
2023-04-10T09:49:54.046Z,15.95
2023-04-10T09:52:22.628Z,17.34
2023-04-10T09:54:50.367Z,16.43
2023-04-10T09:57:18.395Z,16.82
2023-04-10T09:59:48.775Z,16.72
2023-04-10T10:02:17.629Z,16.75
2023-04-10T10:04:45.914Z,17.02
2023-04-10T10:07:15.947Z,16.38
2023-04-10T10:09:44.136Z,16.72
2023-04-10T10:12:11.904Z,16.58
2023-04-10T10:14:43.430Z,16.73
2023-04-10T10:17:12.227Z,17.00
2023-04-10T10:19:46.144Z,17.71
2023-04-10T10:22:15.424Z,16.90
2023-04-10T10:24:45.834Z,17.77
2023-04-10T10:27:15.365Z,17.95
2023-04-10T10:29:44.446Z,16.25
2023-04-10T10:32:12.287Z,16.83
2023-04-10T10:34:39.940Z,16.40
2023-04-10T10:37:08.314Z,16.25
2023-04-10T10:39:43.376Z,16.08
2023-04-10T10:42:16.139Z,16.28
2023-04-10T10:44:46.430Z,17.22
2023-04-10T10:47:16.223Z,17.00
2023-04-10T10:49:53.660Z,17.03
2023-04-10T10:52:43.312Z,16.41
2023-04-10T10:55:37.659Z,16.59
2023-04-10T10:58:07.205Z,16.74
2023-04-10T11:00:52.937Z,16.31
2023-04-10T11:03:29.448Z,15.98
2023-04-10T11:05:57.364Z,16.44
2023-04-10T11:08:45.342Z,16.24
2023-04-10T11:11:13.970Z,15.79
2023-04-10T11:13:43.062Z,15.75
2023-04-10T11:16:10.590Z,15.99
2023-04-10T11:19:10.593Z,16.16
2023-04-10T11:22:01.922Z,17.14
2023-04-10T11:24:30.096Z,16.44
2023-04-10T11:26:57.218Z,16.19
2023-04-10T11:29:35.393Z,15.88
2023-04-10T11:32:04.721Z,15.35
2023-04-10T11:34:32.870Z,16.17
2023-04-10T11:37:00.387Z,15.83
2023-04-10T11:39:27.799Z,15.66
2023-04-10T11:41:55.730Z,15.70
2023-04-10T11:44:30.545Z,15.06
2023-04-10T11:47:00.173Z,14.74
2023-04-10T11:49:28.649Z,15.08
2023-04-10T11:51:56.937Z,15.33
2023-04-10T11:54:25.610Z,15.15
2023-04-10T11:56:59.162Z,15.36
2023-04-10T11:59:27.317Z,15.37
2023-04-10T12:01:54.755Z,15.63
2023-04-10T12:04:24.373Z,15.43
2023-04-10T12:06:53.141Z,15.20
2023-04-10T12:09:22.273Z,15.11
2023-04-10T12:11:51.202Z,14.97
2023-04-10T12:14:19.805Z,14.86
2023-04-10T12:16:47.507Z,17.32
2023-04-10T12:19:15.962Z,15.51
2023-04-10T12:21:44.904Z,15.47
2023-04-10T12:24:12.604Z,15.29
2023-04-10T12:26:47.727Z,16.50
2023-04-10T12:29:15.017Z,16.02
2023-04-10T12:31:43.232Z,15.62
2023-04-10T12:34:18.830Z,16.49
2023-04-10T12:36:54.116Z,16.11
2023-04-10T12:39:23.009Z,16.50
2023-04-10T12:41:51.781Z,16.21
2023-04-10T12:44:19.366Z,15.90
2023-04-10T12:46:47.003Z,16.14
2023-04-10T12:49:15.426Z,15.82
2023-04-10T12:51:43.262Z,15.77
2023-04-10T12:54:12.771Z,15.73
2023-04-10T12:56:41.812Z,15.67
2023-04-10T12:59:10.056Z,16.05
2023-04-10T13:01:37.906Z,15.65
2023-04-10T13:04:06.126Z,15.71
2023-04-10T13:06:34.083Z,15.83
2023-04-10T13:09:02.161Z,16.09
2023-04-10T13:11:30.646Z,16.10
2023-04-10T13:13:58.672Z,15.77
2023-04-10T13:16:27.285Z,16.18
2023-04-10T13:18:54.666Z,15.92
2023-04-10T13:21:23.642Z,15.70
2023-04-10T13:23:51.193Z,17.41
2023-04-10T13:26:18.878Z,17.20
2023-04-10T13:28:48.397Z,17.00
2023-04-10T13:31:16.587Z,16.53
2023-04-10T13:33:44.861Z,16.03
2023-04-10T13:36:11.972Z,16.18
2023-04-10T13:38:40.203Z,16.10
2023-04-10T13:41:08.027Z,16.33
2023-04-10T13:43:36.294Z,16.11
2023-04-10T13:46:05.837Z,16.43
2023-04-10T13:48:40.478Z,16.33
2023-04-10T13:51:09.079Z,16.16
2023-04-10T13:53:36.632Z,15.67
2023-04-10T13:56:04.217Z,15.26
2023-04-10T13:58:32.331Z,15.38
2023-04-10T14:01:00.489Z,15.28
2023-04-10T14:03:30.317Z,15.01
2023-04-10T14:05:57.534Z,15.29
2023-04-10T14:08:25.604Z,15.34
2023-04-10T14:10:53.653Z,14.79
2023-04-10T14:13:21.250Z,15.23
2023-04-10T14:15:49.421Z,14.75
2023-04-10T14:18:17.038Z,15.04
2023-04-10T14:20:46.097Z,14.79
2023-04-10T14:23:14.209Z,14.36
2023-04-10T14:25:42.525Z,14.49
2023-04-10T14:28:10.099Z,14.80
2023-04-10T14:30:37.701Z,14.59
2023-04-10T14:33:06.379Z,14.10
2023-04-10T14:35:34.023Z,14.63
2023-04-10T14:38:04.207Z,13.98
2023-04-10T14:40:31.822Z,14.02
2023-04-10T14:43:00.737Z,14.45
2023-04-10T14:45:29.027Z,15.57
2023-04-10T14:47:57.104Z,14.85
2023-04-10T14:50:25.424Z,14.27
2023-04-10T14:52:53.505Z,13.79
2023-04-10T14:55:23.394Z,13.89
2023-04-10T14:57:51.081Z,16.96
2023-04-10T15:00:19.276Z,13.82
2023-04-10T15:02:46.553Z,13.84
2023-04-10T15:05:13.790Z,14.43
2023-04-10T15:07:42.072Z,14.41
2023-04-10T15:10:10.057Z,14.79
2023-04-10T15:12:39.398Z,13.98
2023-04-10T15:15:07.351Z,13.72
2023-04-10T15:17:34.756Z,13.56
2023-04-10T15:20:02.554Z,13.97
2023-04-10T15:22:30.137Z,14.11
2023-04-10T15:24:57.991Z,13.83
2023-04-10T15:27:26.005Z,13.72
2023-04-10T15:29:55.227Z,14.10
2023-04-10T15:32:23.772Z,15.11
2023-04-10T15:34:52.031Z,14.01
2023-04-10T15:37:19.125Z,15.40
2023-04-10T15:39:47.198Z,14.60
2023-04-10T15:42:14.924Z,15.36
2023-04-10T15:44:47.558Z,14.19
2023-04-10T15:47:18.040Z,14.07
2023-04-10T15:49:45.963Z,14.13
2023-04-10T15:52:13.535Z,14.63
2023-04-10T15:54:41.133Z,14.86
2023-04-10T15:57:09.213Z,14.28
2023-04-10T15:59:37.549Z,14.29
2023-04-10T16:02:04.734Z,13.94
2023-04-10T16:04:33.555Z,15.00
2023-04-10T16:07:01.458Z,14.22
2023-04-10T16:09:29.087Z,14.35
2023-04-10T16:11:56.307Z,14.87
2023-04-10T16:14:24.029Z,14.23
2023-04-10T16:16:51.263Z,14.07
2023-04-10T16:19:18.863Z,15.78
2023-04-10T16:21:47.639Z,14.44
2023-04-10T16:24:15.134Z,14.20
2023-04-10T16:26:42.860Z,14.42
2023-04-10T16:29:10.611Z,14.31
2023-04-10T16:31:38.814Z,13.96
2023-04-10T16:34:06.764Z,14.27
2023-04-10T16:36:34.196Z,14.78
2023-04-10T16:39:03.278Z,15.46
2023-04-10T16:41:30.419Z,14.52
2023-04-10T16:43:57.560Z,14.43
2023-04-10T16:46:24.791Z,14.12
2023-04-10T16:48:51.919Z,13.85
2023-04-10T16:51:19.147Z,14.26
2023-04-10T16:53:46.340Z,14.20
2023-04-10T16:56:15.375Z,14.75
2023-04-10T16:58:43.146Z,14.23
2023-04-10T17:01:14.327Z,14.80
2023-04-10T17:03:41.606Z,14.13
2023-04-10T17:06:08.714Z,14.28
2023-04-10T17:08:35.852Z,13.84
2023-04-10T17:11:04.430Z,15.70
2023-04-10T17:13:33.300Z,15.31
2023-04-10T17:16:00.570Z,14.18
2023-04-10T17:18:27.646Z,15.60
2023-04-10T17:20:55.347Z,14.15
2023-04-10T17:23:23.605Z,15.06
2023-04-10T17:25:51.268Z,13.92
2023-04-10T17:28:19.368Z,13.83
2023-04-10T17:30:49.011Z,14.21
2023-04-10T17:33:16.494Z,13.85
2023-04-10T17:35:43.881Z,14.07
2023-04-10T17:38:11.480Z,14.02
2023-04-10T17:40:38.886Z,14.30
2023-04-10T17:43:06.979Z,14.36
2023-04-10T17:45:36.631Z,14.71
2023-04-10T17:48:06.274Z,14.07
2023-04-10T17:50:33.733Z,15.57
2023-04-10T17:53:01.226Z,14.26
2023-04-10T17:55:29.792Z,13.96
2023-04-10T17:57:58.061Z,14.33
2023-04-10T18:00:25.262Z,14.66
2023-04-10T18:02:52.601Z,15.12
2023-04-10T18:05:21.461Z,14.06
2023-04-10T18:07:49.938Z,13.88
2023-04-10T18:10:17.682Z,14.29
2023-04-10T18:12:44.897Z,14.29
2023-04-10T18:15:12.708Z,13.98
2023-04-10T18:17:40.994Z,14.58
2023-04-10T18:20:08.919Z,14.54
2023-04-10T18:22:38.036Z,15.57
2023-04-10T18:25:05.762Z,14.04
2023-04-10T18:27:32.831Z,13.91
2023-04-10T18:30:00.413Z,13.98
2023-04-10T18:32:28.109Z,13.80
2023-04-10T18:34:55.207Z,13.82
2023-04-10T18:37:22.357Z,14.17
2023-04-10T18:39:50.977Z,13.83
2023-04-10T18:42:18.034Z,13.50
2023-04-10T18:44:45.104Z,15.38
2023-04-10T18:47:12.318Z,14.63
2023-04-10T18:49:39.519Z,15.21
2023-04-10T18:52:06.653Z,14.07
2023-04-10T18:54:34.186Z,13.75
2023-04-10T18:57:02.982Z,13.69
2023-04-10T18:59:30.022Z,13.60
2023-04-10T19:01:57.862Z,15.38
2023-04-10T19:04:25.244Z,15.60
2023-04-10T19:06:52.475Z,14.54
2023-04-10T19:09:19.896Z,15.21
2023-04-10T19:11:46.984Z,15.40
2023-04-10T19:14:16.244Z,14.53
2023-04-10T19:16:43.315Z,15.72
2023-04-10T19:19:11.392Z,14.41
2023-04-10T19:21:38.971Z,13.77
2023-04-10T19:24:06.207Z,14.89
2023-04-10T19:26:33.351Z,15.32
2023-04-10T19:29:00.468Z,14.13
2023-04-10T19:31:29.080Z,14.53
2023-04-10T19:33:56.231Z,14.26
2023-04-10T19:36:23.367Z,13.70
2023-04-10T19:38:50.435Z,14.45
2023-04-10T19:41:18.013Z,14.71
2023-04-10T19:43:45.130Z,15.71
2023-04-10T19:46:18.457Z,14.36
2023-04-10T19:48:47.418Z,14.17
2023-04-10T19:51:15.016Z,15.18
2023-04-10T19:53:42.471Z,15.81
2023-04-10T19:56:09.645Z,14.56
2023-04-10T19:58:55.756Z,14.08
2023-04-10T20:01:23.054Z,15.05
2023-04-10T20:03:51.693Z,14.37
2023-04-10T20:06:18.900Z,13.88
2023-04-10T20:08:45.966Z,14.88
2023-04-10T20:11:13.036Z,15.44
2023-04-10T20:13:40.528Z,15.87
2023-04-10T20:16:08.034Z,16.00
2023-04-10T20:18:35.152Z,16.51
2023-04-10T20:21:03.722Z,14.93
2023-04-10T20:23:30.897Z,14.20
2023-04-10T20:25:58.198Z,14.08
2023-04-10T20:28:25.266Z,14.64
2023-04-10T20:30:52.318Z,14.01
2023-04-10T20:33:19.359Z,14.86
2023-04-10T20:35:46.424Z,14.41
2023-04-10T20:38:14.988Z,14.76
2023-04-10T20:40:42.036Z,14.29
2023-04-10T20:43:09.664Z,14.45
2023-04-10T20:45:37.260Z,13.85
2023-04-10T20:48:04.753Z,13.84
2023-04-10T20:50:32.237Z,13.95
2023-04-10T20:52:59.803Z,15.33
2023-04-10T20:55:28.344Z,14.82
2023-04-10T20:57:55.422Z,14.07
2023-04-10T21:00:22.838Z,14.19
2023-04-10T21:02:50.356Z,14.54
2023-04-10T21:05:17.528Z,13.71
2023-04-10T21:07:44.696Z,13.89
2023-04-10T21:10:11.754Z,13.98
2023-04-10T21:12:40.711Z,14.90
2023-04-10T21:15:08.432Z,16.20
2023-04-10T21:17:35.551Z,14.41
2023-04-10T21:20:02.685Z,14.55
2023-04-10T21:22:29.839Z,13.81
2023-04-10T21:24:56.968Z,13.89
2023-04-10T21:27:24.229Z,14.20
2023-04-10T21:29:52.762Z,15.29
2023-04-10T21:32:19.946Z,14.31
2023-04-10T21:34:47.233Z,14.75
2023-04-10T21:37:14.341Z,13.71
2023-04-10T21:39:41.361Z,13.88
2023-04-10T21:42:08.496Z,14.32
2023-04-10T21:44:35.564Z,14.29
2023-04-10T21:47:04.657Z,14.04
2023-04-10T21:49:31.768Z,14.07
2023-04-10T21:51:58.820Z,13.92
2023-04-10T21:54:25.897Z,14.07
2023-04-10T21:56:52.970Z,13.66
2023-04-10T21:59:20.066Z,13.58
2023-04-10T22:01:47.329Z,14.35
2023-04-10T22:04:16.154Z,13.90
2023-04-10T22:06:43.298Z,13.90
2023-04-10T22:09:10.932Z,13.79
2023-04-10T22:11:38.385Z,14.11
2023-04-10T22:14:15.773Z,13.71
2023-04-10T22:16:44.631Z,13.60
2023-04-10T22:19:11.833Z,13.86
2023-04-10T22:21:40.401Z,14.11
2023-04-10T22:24:07.725Z,14.33
2023-04-10T22:26:34.815Z,15.85
2023-04-10T22:29:03.490Z,14.51
2023-04-10T22:31:30.592Z,14.48
2023-04-10T22:33:57.697Z,14.02
2023-04-10T22:36:24.924Z,14.71
2023-04-10T22:38:53.933Z,15.25
2023-04-10T22:41:21.173Z,15.20
2023-04-10T22:43:48.222Z,14.39
2023-04-10T22:46:15.435Z,16.55
2023-04-10T22:48:42.504Z,14.89
2023-04-10T22:51:10.450Z,14.23
2023-04-10T22:53:37.716Z,14.29
2023-04-10T22:56:06.699Z,14.98
2023-04-10T22:58:33.745Z,14.51
2023-04-10T23:01:00.782Z,14.78
2023-04-10T23:03:28.385Z,14.63
2023-04-10T23:05:55.470Z,14.28
2023-04-10T23:08:22.560Z,14.48
2023-04-10T23:10:52.521Z,14.28
2023-04-10T23:13:21.595Z,14.43
2023-04-10T23:15:49.249Z,14.30
2023-04-10T23:18:16.334Z,15.09
2023-04-10T23:20:44.466Z,14.35
2023-04-10T23:23:11.532Z,14.11
2023-04-10T23:25:38.589Z,14.55
2023-04-10T23:28:05.768Z,14.20
2023-04-10T23:30:35.741Z,14.36
2023-04-10T23:33:02.877Z,15.20
2023-04-10T23:35:30.450Z,14.56
2023-04-10T23:37:57.588Z,14.54
2023-04-10T23:40:25.050Z,14.88
2023-04-10T23:42:52.141Z,14.53
2023-04-10T23:45:19.349Z,15.65
2023-04-10T23:47:50.224Z,15.16
2023-04-10T23:50:18.023Z,13.92
2023-04-10T23:52:48.049Z,15.08
2023-04-10T23:55:15.129Z,14.53
2023-04-10T23:57:42.391Z,14.30
